createdAt,value
2019-02-03T00:01:44.474Z,2.20
2019-02-03T00:04:17.147Z,2.10
2019-02-03T00:06:49.822Z,2.10
2019-02-03T00:09:22.530Z,2.10
2019-02-03T00:11:55.502Z,2.10
2019-02-03T00:14:28.217Z,2.10
2019-02-03T00:17:01.342Z,2.10
2019-02-03T00:19:34.030Z,2.00
2019-02-03T00:22:06.752Z,2.00
2019-02-03T00:24:39.668Z,2.00
2019-02-03T00:27:12.326Z,2.00
2019-02-03T00:29:45.251Z,2.00
2019-02-03T00:32:17.935Z,2.00
2019-02-03T00:34:50.964Z,2.00
2019-02-03T00:37:23.634Z,2.00
2019-02-03T00:39:56.387Z,2.00
2019-02-03T00:42:29.354Z,2.00
2019-02-03T00:45:02.023Z,2.00
2019-02-03T00:47:40.603Z,2.00
2019-02-03T00:50:13.667Z,2.00
2019-02-03T00:52:46.761Z,2.00
2019-02-03T00:55:19.546Z,2.00
2019-02-03T00:57:52.334Z,2.00
2019-02-03T01:00:25.023Z,1.90
2019-02-03T01:02:57.824Z,2.00
2019-02-03T01:05:30.530Z,2.00
2019-02-03T01:08:04.101Z,2.00
2019-02-03T01:10:36.816Z,2.00
2019-02-03T01:13:09.807Z,2.00
2019-02-03T01:15:42.808Z,2.00
2019-02-03T01:18:15.513Z,2.00
2019-02-03T01:20:49.184Z,2.00
2019-02-03T01:23:21.954Z,2.00
2019-02-03T01:25:54.639Z,2.00
2019-02-03T01:28:27.331Z,2.00
2019-02-03T01:31:00.019Z,2.00
2019-02-03T01:33:32.710Z,2.00
2019-02-03T01:36:05.418Z,1.90
2019-02-03T01:38:38.127Z,1.90
2019-02-03T01:41:10.855Z,1.90
2019-02-03T01:43:43.530Z,1.80
2019-02-03T01:46:16.294Z,1.70
2019-02-03T01:48:48.970Z,1.70
2019-02-03T01:51:21.930Z,1.60
2019-02-03T01:53:54.981Z,1.60
2019-02-03T01:56:27.678Z,1.60
2019-02-03T01:59:00.366Z,1.60
2019-02-03T02:01:33.071Z,1.60
2019-02-03T02:04:05.749Z,1.60
2019-02-03T02:06:38.430Z,1.70
2019-02-03T02:09:11.442Z,1.70
2019-02-03T02:11:44.183Z,1.80
2019-02-03T02:14:16.871Z,1.80
2019-02-03T02:16:49.567Z,1.80
2019-02-03T02:19:22.618Z,1.80
2019-02-03T02:21:55.298Z,1.90
2019-02-03T02:24:27.987Z,1.90
2019-02-03T02:27:01.066Z,1.80
2019-02-03T02:29:33.838Z,1.70
2019-02-03T02:32:06.741Z,1.70
2019-02-03T02:34:39.491Z,1.70
2019-02-03T02:37:12.520Z,1.60
2019-02-03T02:39:45.252Z,1.70
2019-02-03T02:45:09.139Z,1.60
2019-02-03T02:47:41.820Z,1.60
2019-02-03T02:50:20.220Z,1.60
2019-02-03T02:52:52.866Z,1.60
2019-02-03T02:55:25.504Z,1.60
2019-02-03T02:57:58.148Z,1.70
2019-02-03T03:00:30.794Z,1.60
2019-02-03T03:03:03.556Z,1.60
2019-02-03T03:05:36.240Z,1.60
2019-02-03T03:08:18.413Z,1.70
2019-02-03T03:10:43.727Z,1.70
2019-02-03T03:13:16.416Z,1.70
2019-02-03T03:15:49.074Z,1.70
2019-02-03T03:18:22.122Z,1.60
2019-02-03T03:20:54.773Z,1.60
2019-02-03T03:23:27.417Z,1.60
2019-02-03T03:26:00.106Z,1.60
2019-02-03T03:28:32.759Z,1.50
2019-02-03T03:31:05.433Z,1.60
2019-02-03T03:33:38.129Z,1.60
2019-02-03T03:36:10.777Z,1.60
2019-02-03T03:38:43.415Z,1.60
2019-02-03T03:41:16.355Z,1.60
2019-02-03T03:43:48.983Z,1.60
2019-02-03T03:46:21.694Z,1.70
2019-02-03T03:48:54.372Z,1.70
2019-02-03T03:51:27.411Z,1.70
2019-02-03T03:54:00.060Z,1.60
2019-02-03T03:56:32.709Z,1.60
2019-02-03T03:59:05.353Z,1.60
2019-02-03T04:01:38.046Z,1.50
2019-02-03T04:04:10.710Z,1.50
2019-02-03T04:06:43.358Z,1.50
2019-02-03T04:09:16.000Z,1.50
2019-02-03T04:11:48.660Z,1.50
2019-02-03T04:14:21.579Z,1.50
2019-02-03T04:16:54.226Z,1.50
2019-02-03T04:19:26.875Z,1.50
2019-02-03T04:21:59.519Z,1.60
2019-02-03T04:24:32.236Z,1.60
2019-02-03T04:27:04.875Z,1.60
2019-02-03T04:29:37.518Z,1.60
2019-02-03T04:32:10.188Z,1.70
2019-02-03T04:34:42.884Z,1.70
2019-02-03T04:37:15.542Z,1.70
2019-02-03T04:39:48.183Z,1.70
2019-02-03T04:42:20.934Z,1.80
2019-02-03T04:44:53.582Z,1.80
2019-02-03T04:47:26.718Z,1.80
2019-02-03T04:49:59.417Z,1.80
2019-02-03T04:52:32.081Z,1.90
2019-02-03T04:55:05.765Z,1.90
2019-02-03T04:57:38.572Z,1.90
2019-02-03T05:00:14.222Z,1.90
2019-02-03T05:02:46.913Z,1.90
2019-02-03T05:05:19.643Z,1.90
2019-02-03T05:07:52.358Z,2.00
2019-02-03T05:10:24.976Z,2.00
2019-02-03T05:12:57.630Z,2.00
2019-02-03T05:15:30.293Z,2.00
2019-02-03T05:21:18.249Z,2.00
2019-02-03T05:23:50.934Z,2.00
2019-02-03T05:26:23.594Z,2.00
2019-02-03T05:28:56.367Z,2.00
2019-02-03T05:34:44.002Z,2.00
2019-02-03T05:37:16.700Z,2.00
2019-02-03T05:39:49.350Z,1.90
2019-02-03T05:42:22.099Z,1.90
2019-02-03T05:44:54.743Z,1.90
2019-02-03T05:47:27.421Z,1.90
2019-02-03T05:50:00.327Z,1.80
2019-02-03T05:52:33.238Z,1.80
2019-02-03T05:55:05.940Z,1.80
2019-02-03T05:57:38.633Z,1.80
2019-02-03T06:00:16.629Z,1.80
2019-02-03T06:02:49.514Z,1.80
2019-02-03T06:05:22.240Z,1.70
2019-02-03T06:07:54.887Z,1.70
2019-02-03T06:10:27.593Z,1.70
2019-02-03T06:13:00.250Z,1.60
2019-02-03T06:15:32.908Z,1.60
2019-02-03T06:18:05.580Z,1.60
2019-02-03T06:20:38.209Z,1.60
2019-02-03T06:23:10.888Z,1.60
2019-02-03T06:25:43.614Z,1.60
2019-02-03T06:28:16.255Z,1.70
2019-02-03T06:31:14.902Z,1.70
2019-02-03T06:33:49.131Z,1.70
2019-02-03T06:36:22.303Z,1.70
2019-02-03T06:38:54.965Z,1.70
2019-02-03T06:41:27.606Z,1.70
2019-02-03T06:44:00.267Z,1.80
2019-02-03T06:46:32.942Z,1.80
2019-02-03T06:49:05.607Z,1.80
2019-02-03T06:51:38.260Z,1.80
2019-02-03T06:54:10.990Z,1.80
2019-02-03T06:56:43.636Z,1.80
2019-02-03T06:59:16.278Z,1.80
2019-02-03T07:01:48.999Z,1.70
2019-02-03T07:04:22.126Z,1.80
2019-02-03T07:06:54.773Z,1.80
2019-02-03T07:09:27.438Z,1.80
2019-02-03T07:12:00.086Z,1.80
2019-02-03T07:14:32.735Z,1.70
2019-02-03T07:17:05.393Z,1.80
2019-02-03T07:19:38.081Z,1.80
2019-02-03T07:22:10.737Z,1.80
2019-02-03T07:24:43.438Z,1.90
2019-02-03T07:27:16.371Z,1.90
2019-02-03T07:29:49.025Z,1.80
2019-02-03T07:32:21.674Z,1.90
2019-02-03T07:34:54.340Z,1.80
2019-02-03T07:37:27.015Z,1.80
2019-02-03T07:40:11.676Z,1.80
2019-02-03T07:42:34.034Z,1.80
2019-02-03T07:45:06.715Z,1.80
2019-02-03T07:47:39.358Z,1.80
2019-02-03T07:50:12.049Z,1.80
2019-02-03T07:52:44.703Z,1.80
2019-02-03T07:55:17.373Z,1.90
2019-02-03T07:57:50.010Z,1.90
2019-02-03T08:00:23.035Z,1.90
2019-02-03T08:02:55.675Z,2.00
2019-02-03T08:05:28.333Z,2.00
2019-02-03T08:08:02.107Z,2.00
2019-02-03T08:10:34.770Z,2.00
2019-02-03T08:13:07.415Z,2.10
2019-02-03T08:15:40.062Z,2.10
2019-02-03T08:18:12.725Z,2.20
2019-02-03T08:20:45.929Z,2.20
2019-02-03T08:23:18.902Z,2.20
2019-02-03T08:25:53.523Z,2.20
2019-02-03T08:28:26.409Z,2.20
2019-02-03T08:30:59.234Z,2.20
2019-02-03T08:33:32.318Z,2.20
2019-02-03T08:36:05.658Z,2.30
2019-02-03T08:38:38.523Z,2.30
2019-02-03T08:41:11.373Z,2.30
2019-02-03T08:43:44.326Z,2.30
2019-02-03T08:46:17.307Z,2.30
2019-02-03T08:48:50.332Z,2.30
2019-02-03T08:51:24.668Z,2.30
2019-02-03T08:53:57.874Z,2.40
2019-02-03T08:56:32.354Z,2.30
2019-02-03T08:59:05.549Z,2.40
2019-02-03T09:01:38.611Z,2.40
2019-02-03T09:04:11.619Z,2.40
2019-02-03T09:06:45.009Z,2.50
2019-02-03T09:09:17.710Z,2.50
2019-02-03T09:11:50.860Z,2.60
2019-02-03T09:14:24.000Z,2.80
2019-02-03T09:16:57.314Z,2.90
2019-02-03T09:19:30.383Z,3.10
2019-02-03T09:22:03.589Z,3.00
2019-02-03T09:24:36.352Z,2.90
2019-02-03T09:27:08.987Z,2.90
2019-02-03T09:29:41.670Z,2.80
2019-02-03T09:32:14.410Z,2.80
2019-02-03T09:34:47.055Z,2.80
2019-02-03T09:37:19.694Z,2.80
2019-02-03T09:39:52.750Z,2.90
2019-02-03T09:42:25.452Z,3.10
2019-02-03T09:44:58.118Z,3.20
2019-02-03T09:47:30.781Z,3.40
2019-02-03T09:50:04.442Z,3.40
2019-02-03T09:52:37.090Z,3.60
2019-02-03T09:55:09.738Z,3.60
2019-02-03T09:57:42.389Z,3.50
2019-02-03T10:00:20.942Z,3.50
2019-02-03T10:02:54.581Z,3.50
2019-02-03T10:05:27.222Z,3.50
2019-02-03T10:07:59.882Z,3.60
2019-02-03T10:10:34.456Z,3.70
2019-02-03T10:13:07.381Z,3.70
2019-02-03T10:15:40.038Z,3.80
2019-02-03T10:18:12.698Z,3.60
2019-02-03T10:20:45.335Z,3.80
2019-02-03T10:23:18.369Z,3.80
2019-02-03T10:25:51.010Z,3.70
2019-02-03T10:28:23.646Z,3.80
2019-02-03T10:30:56.310Z,3.90
2019-02-03T10:33:28.950Z,3.90
2019-02-03T10:36:01.666Z,3.90
2019-02-03T10:38:34.315Z,3.80
2019-02-03T10:41:06.975Z,3.70
2019-02-03T10:43:39.635Z,3.60
2019-02-03T10:46:12.614Z,3.60
2019-02-03T10:48:45.262Z,3.70
2019-02-03T10:51:17.909Z,3.70
2019-02-03T10:53:50.556Z,3.70
2019-02-03T10:56:23.199Z,3.70
2019-02-03T10:58:55.855Z,3.80
2019-02-03T11:01:28.533Z,3.90
2019-02-03T11:04:01.194Z,3.90
2019-02-03T11:06:33.850Z,3.90
2019-02-03T11:09:08.817Z,4.00
2019-02-03T11:11:41.475Z,3.90
2019-02-03T11:14:14.112Z,3.90
2019-02-03T11:23:15.945Z,4.00
2019-02-03T11:25:48.654Z,4.10
2019-02-03T11:28:21.319Z,4.30
2019-02-03T11:30:53.953Z,4.40
2019-02-03T11:33:26.640Z,4.50
2019-02-03T11:35:59.301Z,4.70
2019-02-03T11:38:31.937Z,4.80
2019-02-03T11:41:05.466Z,4.90
2019-02-03T11:43:38.110Z,5.00
2019-02-03T11:46:10.770Z,5.00
2019-02-03T11:48:43.406Z,5.10
2019-02-03T11:51:16.047Z,5.10
2019-02-03T11:53:48.790Z,5.20
2019-02-03T11:56:21.429Z,5.10
2019-02-03T11:58:54.086Z,5.20
2019-02-03T12:01:26.883Z,5.20
2019-02-03T12:03:59.540Z,5.20
2019-02-03T12:06:32.453Z,5.10
2019-02-03T12:09:07.380Z,5.20
2019-02-03T12:11:40.038Z,5.20
2019-02-03T12:14:12.683Z,5.20
2019-02-03T12:16:45.707Z,5.30
2019-02-03T12:19:18.337Z,5.40
2019-02-03T12:21:50.978Z,5.50
2019-02-03T12:24:23.605Z,5.40
2019-02-03T12:26:56.249Z,5.40
2019-02-03T12:29:28.927Z,5.40
2019-02-03T12:32:01.569Z,5.40
2019-02-03T12:34:34.219Z,5.50
2019-02-03T12:37:07.096Z,5.60
2019-02-03T12:39:39.788Z,5.60
2019-02-03T12:42:13.503Z,5.40
2019-02-03T12:44:46.426Z,5.30
2019-02-03T12:47:19.355Z,5.20
2019-02-03T12:49:52.167Z,5.20
2019-02-03T12:52:24.818Z,5.10
2019-02-03T12:54:57.849Z,5.00
2019-02-03T12:57:30.682Z,5.00
2019-02-03T13:00:05.129Z,5.00
2019-02-03T13:02:37.888Z,5.10
2019-02-03T13:05:11.160Z,5.10
2019-02-03T13:07:44.104Z,5.20
2019-02-03T13:10:21.890Z,5.20
2019-02-03T13:12:54.542Z,5.30
2019-02-03T13:15:32.574Z,5.40
2019-02-03T13:18:06.085Z,5.50
2019-02-03T13:20:42.234Z,5.60
2019-02-03T13:23:13.458Z,5.70
2019-02-03T13:25:46.091Z,5.80
2019-02-03T13:28:18.741Z,5.80
2019-02-03T13:30:51.355Z,5.90
2019-02-03T13:33:23.986Z,6.00
2019-02-03T13:35:56.610Z,6.00
2019-02-03T13:38:29.261Z,5.90
2019-02-03T13:41:01.911Z,5.90
2019-02-03T13:43:35.388Z,5.90
2019-02-03T13:46:08.056Z,5.80
2019-02-03T13:48:40.702Z,5.60
2019-02-03T13:51:13.330Z,5.50
2019-02-03T13:53:45.970Z,5.40
2019-02-03T13:56:18.599Z,5.30
2019-02-03T13:58:51.243Z,5.30
2019-02-03T14:01:23.938Z,5.40
2019-02-03T14:03:56.904Z,5.40
2019-02-03T14:06:29.565Z,5.40
2019-02-03T14:09:02.216Z,5.40
2019-02-03T14:11:34.843Z,5.50
2019-02-03T14:14:07.661Z,5.40
2019-02-03T14:16:40.289Z,5.40
2019-02-03T14:19:12.931Z,5.40
2019-02-03T14:21:45.570Z,5.40
2019-02-03T14:24:18.225Z,5.40
2019-02-03T14:26:50.898Z,5.50
2019-02-03T14:29:23.546Z,5.50
2019-02-03T14:31:56.245Z,5.60
2019-02-03T14:34:28.867Z,5.60
2019-02-03T14:37:01.786Z,5.70
2019-02-03T14:39:34.449Z,5.60
2019-02-03T14:42:09.901Z,5.70
2019-02-03T14:44:41.466Z,5.70
2019-02-03T14:47:14.480Z,5.70
2019-02-03T14:49:47.174Z,5.80
2019-02-03T14:52:19.813Z,5.80
2019-02-03T14:54:52.538Z,5.80
2019-02-03T14:57:25.185Z,5.80
2019-02-03T14:59:57.812Z,5.80
2019-02-03T15:02:30.451Z,5.80
2019-02-03T15:05:03.545Z,5.80
2019-02-03T15:07:37.641Z,5.70
2019-02-03T15:10:10.600Z,5.70
2019-02-03T15:12:43.298Z,5.60
2019-02-03T15:15:18.147Z,5.50
2019-02-03T15:17:50.913Z,5.50
2019-02-03T15:20:23.551Z,5.50
2019-02-03T15:22:59.273Z,5.50
2019-02-03T15:25:31.910Z,5.50
2019-02-03T15:28:10.406Z,5.50
2019-02-03T15:30:42.582Z,5.50
2019-02-03T15:33:15.229Z,5.40
2019-02-03T15:35:47.914Z,5.40
2019-02-03T15:38:20.553Z,5.40
2019-02-03T15:40:53.173Z,5.40
2019-02-03T15:43:25.996Z,5.30
2019-02-03T15:45:58.810Z,5.40
2019-02-03T15:48:31.446Z,5.40
2019-02-03T15:51:04.466Z,5.40
2019-02-03T15:53:37.115Z,5.40
2019-02-03T15:56:09.794Z,5.40
2019-02-03T15:58:42.513Z,5.40
2019-02-03T16:01:15.150Z,5.30
2019-02-03T16:03:47.819Z,5.30
2019-02-03T16:06:20.426Z,5.20
2019-02-03T16:08:53.085Z,5.20
2019-02-03T16:11:25.790Z,5.20
2019-02-03T16:20:32.599Z,5.10
2019-02-03T16:23:03.005Z,5.10
2019-02-03T16:25:35.677Z,5.10
2019-02-03T16:28:08.318Z,5.00
2019-02-03T16:30:41.335Z,5.10
2019-02-03T16:33:14.037Z,5.00
2019-02-03T16:35:46.674Z,5.00
2019-02-03T16:38:23.122Z,5.00
2019-02-03T16:40:53.685Z,5.00
2019-02-03T16:43:26.336Z,5.00
2019-02-03T16:45:58.999Z,4.90
2019-02-03T16:48:31.719Z,5.00
2019-02-03T16:51:05.295Z,4.90
2019-02-03T16:53:38.375Z,4.90
2019-02-03T16:56:11.027Z,4.90
2019-02-03T16:58:43.715Z,4.80
2019-02-03T17:01:16.353Z,4.80
2019-02-03T17:03:48.999Z,4.80
2019-02-03T17:06:21.646Z,4.70
2019-02-03T17:08:54.511Z,4.70
2019-02-03T17:11:27.163Z,4.60
2019-02-03T17:14:00.772Z,4.60
2019-02-03T17:16:33.600Z,4.50
2019-02-03T17:19:06.263Z,4.40
2019-02-03T17:21:38.972Z,4.40
2019-02-03T17:24:11.643Z,4.40
2019-02-03T17:26:44.271Z,4.30
2019-02-03T17:29:16.922Z,4.30
2019-02-03T17:31:49.556Z,4.30
2019-02-03T17:34:22.220Z,4.30
2019-02-03T17:36:54.829Z,4.20
2019-02-03T17:39:27.493Z,4.20
2019-02-03T17:42:00.502Z,4.20
2019-02-03T17:44:33.217Z,4.10
2019-02-03T17:47:05.907Z,4.10
2019-02-03T17:49:38.550Z,4.10
2019-02-03T17:52:11.194Z,4.00
2019-02-03T17:54:43.851Z,4.00
2019-02-03T17:57:19.178Z,3.90
2019-02-03T17:59:50.892Z,3.90
2019-02-03T18:02:23.516Z,3.80
2019-02-03T18:04:56.238Z,3.80
2019-02-03T18:07:28.866Z,3.80
2019-02-03T18:10:01.521Z,3.80
2019-02-03T18:12:34.176Z,3.80
2019-02-03T18:15:07.727Z,3.70
2019-02-03T18:17:40.369Z,3.70
2019-02-03T18:20:15.443Z,3.60
2019-02-03T18:22:48.077Z,3.60
2019-02-03T18:25:20.748Z,3.50
2019-02-03T18:27:53.379Z,3.50
2019-02-03T18:30:26.076Z,3.40
2019-02-03T18:32:58.756Z,3.40
2019-02-03T18:35:31.418Z,3.30
2019-02-03T18:38:06.053Z,3.30
2019-02-03T18:40:38.767Z,3.20
2019-02-03T18:43:11.448Z,3.20
2019-02-03T18:45:44.080Z,3.10
2019-02-03T18:48:16.721Z,3.10
2019-02-03T18:50:49.391Z,3.00
2019-02-03T18:53:22.058Z,3.00
2019-02-03T18:55:54.767Z,2.90
2019-02-03T18:58:27.443Z,2.90
2019-02-03T19:01:00.130Z,2.90
2019-02-03T19:03:32.816Z,2.80
2019-02-03T19:06:05.562Z,2.80
2019-02-03T19:08:38.195Z,2.70
2019-02-03T19:11:11.359Z,2.70
2019-02-03T19:13:44.046Z,2.60
2019-02-03T19:16:16.690Z,2.60
2019-02-03T19:18:49.349Z,2.60
2019-02-03T19:21:22.698Z,2.50
2019-02-03T19:23:55.503Z,2.50
2019-02-03T19:26:28.155Z,2.50
2019-02-03T19:29:00.862Z,2.50
2019-02-03T19:31:33.531Z,2.50
2019-02-03T19:34:06.186Z,2.50
2019-02-03T19:36:38.807Z,2.40
2019-02-03T19:39:11.560Z,2.40
2019-02-03T19:41:44.279Z,2.40
2019-02-03T19:44:16.917Z,2.40
2019-02-03T19:46:49.618Z,2.40
2019-02-03T19:49:22.272Z,2.40
2019-02-03T19:51:54.912Z,2.30
2019-02-03T19:54:27.547Z,2.30
2019-02-03T19:57:00.213Z,2.30
2019-02-03T19:59:32.900Z,2.30
2019-02-03T20:02:05.557Z,2.20
2019-02-03T20:04:38.190Z,2.20
2019-02-03T20:07:11.315Z,2.20
2019-02-03T20:09:43.959Z,2.20
2019-02-03T20:12:16.636Z,2.10
2019-02-03T20:14:49.264Z,2.20
2019-02-03T20:17:21.920Z,2.10
2019-02-03T20:19:54.554Z,2.10
2019-02-03T20:22:27.206Z,2.20
2019-02-03T20:24:59.872Z,2.20
2019-02-03T20:27:32.553Z,2.10
2019-02-03T20:30:08.907Z,2.20
2019-02-03T20:32:41.561Z,2.10
2019-02-03T20:35:14.880Z,2.10
2019-02-03T20:37:47.559Z,2.10
2019-02-03T20:40:22.799Z,2.10
2019-02-03T20:42:55.519Z,2.10
2019-02-03T20:45:28.258Z,2.10
2019-02-03T20:48:00.910Z,2.10
2019-02-03T20:50:33.536Z,2.10
2019-02-03T20:53:06.192Z,2.10
2019-02-03T20:55:38.819Z,2.00
2019-02-03T20:58:11.490Z,2.00
2019-02-03T21:00:44.122Z,2.00
2019-02-03T21:03:17.246Z,1.90
2019-02-03T21:05:49.903Z,1.90
2019-02-03T21:08:22.548Z,1.80
2019-02-03T21:10:55.190Z,1.80
2019-02-03T21:13:27.831Z,1.80
2019-02-03T21:16:00.474Z,1.80
2019-02-03T21:18:33.121Z,1.80
2019-02-03T21:21:05.754Z,1.80
2019-02-03T21:23:38.695Z,1.80
2019-02-03T21:26:16.307Z,1.70
2019-02-03T21:28:46.083Z,1.70
2019-02-03T21:31:18.733Z,1.70
2019-02-03T21:33:51.439Z,1.70
2019-02-03T21:36:24.078Z,1.70
2019-02-03T21:39:14.167Z,1.70
2019-02-03T21:41:44.227Z,1.70
2019-02-03T21:44:16.926Z,1.60
2019-02-03T21:46:49.842Z,1.70
2019-02-03T21:49:22.569Z,1.70
2019-02-03T21:51:55.215Z,1.60
2019-02-03T21:54:27.850Z,1.60
2019-02-03T21:57:00.510Z,1.60
2019-02-03T21:59:33.147Z,1.60
2019-02-03T22:02:05.800Z,1.60
2019-02-03T22:04:38.442Z,1.60
2019-02-03T22:07:11.095Z,1.50
2019-02-03T22:09:43.751Z,1.50
2019-02-03T22:12:16.427Z,1.50
2019-02-03T22:14:49.099Z,1.50
2019-02-03T22:17:21.769Z,1.50
2019-02-03T22:19:54.773Z,1.50
2019-02-03T22:22:27.507Z,1.50
2019-02-03T22:25:00.197Z,1.50
2019-02-03T22:27:32.867Z,1.50
2019-02-03T22:30:10.259Z,1.50
2019-02-03T22:32:42.980Z,1.50
2019-02-03T22:35:15.619Z,1.50
2019-02-03T22:37:48.293Z,1.50
2019-02-03T22:40:21.002Z,1.50
2019-02-03T22:42:53.723Z,1.40
2019-02-03T22:45:26.384Z,1.50
2019-02-03T22:47:59.067Z,1.50
2019-02-03T22:50:31.851Z,1.50
2019-02-03T22:53:04.867Z,1.60
2019-02-03T22:55:37.509Z,1.60
2019-02-03T22:58:10.160Z,1.60
2019-02-03T23:00:55.875Z,1.50
2019-02-03T23:03:49.301Z,1.50
2019-02-03T23:06:23.654Z,1.40
2019-02-03T23:08:57.780Z,1.40
2019-02-03T23:11:30.404Z,1.30
2019-02-03T23:14:04.634Z,1.30
2019-02-03T23:16:37.552Z,1.20
2019-02-03T23:19:10.221Z,1.20
2019-02-03T23:21:44.983Z,1.20
2019-02-03T23:24:17.216Z,1.10
2019-02-03T23:26:49.891Z,1.20
2019-02-03T23:29:22.530Z,1.20
2019-02-03T23:31:55.468Z,1.20
2019-02-03T23:34:28.167Z,1.20
2019-02-03T23:37:00.848Z,1.10
2019-02-03T23:39:33.494Z,1.10
2019-02-03T23:42:06.115Z,1.10
2019-02-03T23:44:38.773Z,1.10
2019-02-03T23:47:11.457Z,1.10
2019-02-03T23:49:44.091Z,1.10
2019-02-03T23:52:16.731Z,1.00
2019-02-03T23:54:49.907Z,1.00
2019-02-03T23:57:22.678Z,0.90
2019-02-03T23:59:55.327Z,0.90
